createdAt,value
2022-09-06T00:02:51.704Z,2.58
2022-09-06T00:05:54.726Z,2.37
2022-09-06T00:08:57.385Z,2.53
2022-09-06T00:11:59.991Z,2.47
2022-09-06T00:15:02.746Z,2.33
2022-09-06T00:18:07.866Z,2.35
2022-09-06T00:21:16.478Z,2.77
2022-09-06T00:24:19.037Z,2.70
2022-09-06T00:27:21.644Z,2.88
2022-09-06T00:30:24.532Z,2.47
2022-09-06T00:33:28.580Z,2.47
2022-09-06T00:36:31.281Z,2.50
2022-09-06T00:39:33.916Z,2.65
2022-09-06T00:42:36.564Z,2.47
2022-09-06T00:45:39.502Z,2.38
2022-09-06T00:48:44.394Z,2.63
2022-09-06T00:51:47.007Z,2.60
2022-09-06T00:54:50.449Z,2.67
2022-09-06T00:57:53.300Z,2.50
2022-09-06T01:00:56.129Z,3.13
2022-09-06T01:04:00.557Z,2.20
2022-09-06T01:07:07.131Z,2.67
2022-09-06T01:10:22.197Z,2.77
2022-09-06T01:13:34.400Z,2.37
2022-09-06T01:16:40.525Z,2.80
2022-09-06T01:20:11.818Z,3.00
2022-09-06T01:23:40.534Z,2.60
2022-09-06T01:27:21.637Z,2.70
2022-09-06T01:30:25.891Z,2.47
2022-09-06T01:33:33.807Z,2.40
2022-09-06T01:36:54.411Z,2.70
2022-09-06T01:40:03.843Z,2.70
2022-09-06T01:43:10.813Z,2.15
2022-09-06T01:46:19.032Z,2.40
2022-09-06T01:49:28.542Z,2.33
2022-09-06T01:52:35.092Z,2.50
2022-09-06T01:55:44.590Z,2.77
2022-09-06T01:59:08.213Z,2.60
2022-09-06T02:02:15.382Z,2.38
2022-09-06T02:05:24.563Z,2.50
2022-09-06T02:08:30.914Z,2.13
2022-09-06T02:11:38.899Z,2.73
2022-09-06T02:14:44.249Z,3.17
2022-09-06T02:17:52.014Z,2.60
2022-09-06T02:20:56.468Z,2.10
2022-09-06T02:24:01.574Z,2.80
2022-09-06T02:27:04.808Z,2.93
2022-09-06T02:33:15.454Z,3.05
2022-09-06T02:36:18.681Z,2.37
2022-09-06T02:42:24.243Z,3.23
2022-09-06T02:45:26.937Z,2.38
2022-09-06T02:48:31.021Z,2.95
2022-09-06T02:51:37.483Z,3.10
2022-09-06T02:54:40.508Z,2.77
2022-09-06T02:57:43.832Z,3.10
2022-09-06T03:00:46.406Z,3.47
2022-09-06T03:03:50.495Z,5.20
2022-09-06T03:06:53.200Z,3.73
2022-09-06T03:09:57.053Z,4.40
2022-09-06T03:12:59.969Z,3.43
2022-09-06T03:16:02.955Z,4.07
2022-09-06T03:19:06.967Z,3.88
2022-09-06T03:22:09.606Z,3.83
2022-09-06T03:25:12.277Z,3.95
2022-09-06T03:28:14.964Z,4.43
2022-09-06T03:31:17.689Z,5.05
2022-09-06T03:34:21.982Z,3.60
2022-09-06T03:37:24.790Z,4.60
2022-09-06T03:40:27.694Z,3.97
2022-09-06T03:43:32.071Z,4.78
2022-09-06T03:46:34.697Z,4.27
2022-09-06T03:49:39.464Z,4.57
2022-09-06T03:52:42.061Z,4.40
2022-09-06T03:55:46.222Z,4.35
2022-09-06T03:58:48.947Z,4.60
2022-09-06T04:01:51.564Z,4.80
2022-09-06T04:04:55.643Z,4.32
2022-09-06T04:07:58.253Z,4.50
2022-09-06T04:11:01.294Z,5.20
2022-09-06T04:14:04.117Z,4.35
2022-09-06T04:17:06.908Z,4.28
2022-09-06T04:20:11.491Z,4.15
2022-09-06T04:23:14.101Z,4.20
2022-09-06T04:26:17.466Z,4.10
2022-09-06T04:32:22.715Z,3.60
2022-09-06T04:35:26.830Z,4.63
2022-09-06T04:38:31.176Z,4.43
2022-09-06T04:41:33.787Z,4.27
2022-09-06T04:44:36.410Z,4.95
2022-09-06T04:47:39.052Z,4.28
2022-09-06T04:50:42.938Z,4.57
2022-09-06T04:53:45.743Z,4.90
2022-09-06T04:56:48.251Z,4.40
2022-09-06T04:59:50.780Z,4.47
2022-09-06T05:02:53.333Z,4.05
2022-09-06T05:06:06.716Z,4.20
2022-09-06T05:09:09.321Z,6.43
2022-09-06T05:12:11.873Z,4.90
2022-09-06T05:15:14.570Z,5.30
2022-09-06T05:18:17.098Z,5.93
2022-09-06T05:21:21.068Z,5.47
2022-09-06T05:24:23.604Z,4.97
2022-09-06T05:27:26.475Z,10.38
2022-09-06T05:30:29.095Z,4.88
2022-09-06T05:33:31.705Z,4.88
2022-09-06T05:36:35.624Z,5.03
2022-09-06T05:39:38.274Z,4.83
2022-09-06T05:42:41.308Z,4.88
2022-09-06T05:45:43.924Z,4.72
2022-09-06T05:48:53.110Z,4.90
2022-09-06T05:51:57.032Z,4.67
2022-09-06T05:54:59.656Z,4.70
2022-09-06T05:58:02.212Z,4.53
2022-09-06T06:01:09.816Z,3.92
2022-09-06T06:04:12.457Z,4.00
2022-09-06T06:07:16.494Z,4.05
2022-09-06T06:10:19.079Z,3.73
2022-09-06T06:13:21.632Z,4.00
2022-09-06T06:16:24.957Z,4.60
2022-09-06T06:19:27.741Z,3.80
2022-09-06T06:22:31.615Z,3.53
2022-09-06T06:25:34.183Z,3.80
2022-09-06T06:28:37.438Z,4.68
2022-09-06T06:34:42.699Z,3.67
2022-09-06T06:37:46.715Z,4.72
2022-09-06T06:40:49.246Z,4.37
2022-09-06T06:43:55.780Z,4.50
2022-09-06T06:47:01.882Z,4.50
2022-09-06T06:50:05.154Z,4.57
2022-09-06T06:59:18.076Z,4.20
2022-09-06T07:02:20.756Z,3.17
2022-09-06T07:08:48.171Z,4.28
2022-09-06T07:11:51.121Z,4.20
2022-09-06T07:14:53.782Z,3.97
2022-09-06T07:17:56.726Z,3.50
2022-09-06T07:24:23.522Z,3.10
2022-09-06T07:30:48.764Z,3.07
2022-09-06T07:33:55.200Z,2.92
2022-09-06T07:36:59.245Z,2.77
2022-09-06T07:40:03.734Z,3.47
2022-09-06T07:43:06.332Z,3.60
2022-09-06T07:46:10.874Z,2.63
2022-09-06T07:49:13.407Z,2.70
2022-09-06T07:55:41.082Z,2.97
2022-09-06T07:58:43.622Z,2.37
2022-09-06T08:01:47.513Z,2.50
2022-09-06T08:04:51.717Z,2.60
2022-09-06T08:11:18.919Z,2.63
2022-09-06T08:14:21.522Z,2.70
2022-09-06T08:17:25.734Z,3.00
2022-09-06T08:20:28.324Z,2.43
2022-09-06T08:23:30.950Z,2.20
2022-09-06T08:26:36.362Z,2.40
2022-09-06T08:29:39.885Z,2.63
2022-09-06T08:32:42.932Z,2.73
2022-09-06T08:38:49.634Z,2.13
2022-09-06T08:41:56.902Z,2.45
2022-09-06T08:45:00.502Z,2.90
2022-09-06T08:48:03.461Z,2.67
2022-09-06T08:51:38.615Z,2.20
2022-09-06T08:54:43.306Z,2.90
2022-09-06T08:57:57.503Z,2.28
2022-09-06T09:01:03.188Z,2.22
2022-09-06T09:04:07.255Z,2.50
2022-09-06T09:07:26.199Z,2.30
2022-09-06T09:10:30.043Z,2.30
2022-09-06T09:13:36.995Z,2.15
2022-09-06T09:16:39.731Z,2.38
2022-09-06T09:22:45.508Z,2.15
2022-09-06T09:25:49.259Z,1.98
2022-09-06T09:29:07.335Z,2.15
2022-09-06T09:32:09.930Z,2.25
2022-09-06T09:38:24.792Z,2.55
2022-09-06T09:41:31.222Z,1.77
2022-09-06T09:44:35.203Z,2.40
2022-09-06T09:47:37.842Z,2.33
2022-09-06T09:53:51.060Z,2.47
2022-09-06T09:56:54.040Z,2.10
2022-09-06T10:00:01.113Z,2.40
2022-09-06T10:03:12.861Z,2.00
2022-09-06T10:09:41.110Z,2.22
2022-09-06T10:12:43.999Z,2.13
2022-09-06T10:15:49.275Z,2.33
2022-09-06T10:18:52.798Z,2.75
2022-09-06T10:21:59.929Z,2.25
2022-09-06T10:25:19.082Z,2.17
2022-09-06T10:28:32.617Z,1.65
2022-09-06T10:31:52.839Z,2.83
2022-09-06T10:35:10.996Z,2.17
2022-09-06T10:38:25.623Z,1.77
2022-09-06T10:41:35.934Z,1.23
2022-09-06T10:44:49.936Z,1.40
2022-09-06T10:48:04.792Z,1.60
2022-09-06T10:51:11.089Z,1.40
2022-09-06T10:54:14.813Z,1.70
2022-09-06T11:00:46.760Z,1.83
2022-09-06T11:07:03.319Z,1.65
2022-09-06T11:10:11.503Z,1.67
2022-09-06T11:13:17.208Z,1.90
2022-09-06T11:16:23.307Z,2.13
2022-09-06T11:19:32.443Z,1.75
2022-09-06T11:22:47.039Z,2.10
2022-09-06T11:26:04.088Z,2.05
2022-09-06T11:29:09.105Z,1.77
2022-09-06T11:32:30.349Z,1.90
2022-09-06T11:35:34.905Z,1.80
2022-09-06T11:38:37.499Z,1.80
2022-09-06T11:41:41.774Z,1.83
2022-09-06T11:44:55.862Z,2.05
2022-09-06T11:48:34.251Z,2.10
2022-09-06T11:51:39.748Z,2.15
2022-09-06T11:54:44.510Z,3.25
2022-09-06T11:57:48.229Z,2.20
2022-09-06T12:01:24.302Z,2.20
2022-09-06T12:05:07.340Z,2.10
2022-09-06T12:08:31.143Z,1.88
2022-09-06T12:11:37.204Z,2.03
2022-09-06T12:14:41.567Z,2.38
2022-09-06T12:17:48.577Z,2.17
2022-09-06T12:21:04.290Z,2.00
2022-09-06T12:24:09.158Z,2.22
2022-09-06T12:27:15.660Z,2.58
2022-09-06T12:30:33.313Z,2.25
2022-09-06T12:33:38.748Z,1.83
2022-09-06T12:36:54.787Z,2.03
2022-09-06T12:39:59.786Z,2.00
2022-09-06T12:43:04.611Z,1.67
2022-09-06T12:46:08.111Z,2.60
2022-09-06T12:49:12.231Z,1.98
2022-09-06T12:52:16.968Z,2.10
2022-09-06T12:55:23.829Z,2.72
2022-09-06T12:58:29.379Z,2.75
2022-09-06T13:01:34.459Z,2.65
2022-09-06T13:04:41.151Z,2.95
2022-09-06T13:07:45.982Z,2.45
2022-09-06T13:10:49.958Z,3.00
2022-09-06T13:13:54.143Z,2.53
2022-09-06T13:16:57.723Z,3.38
2022-09-06T13:20:11.932Z,2.92
2022-09-06T13:23:21.884Z,2.75
2022-09-06T13:26:43.806Z,2.55
2022-09-06T13:29:55.798Z,2.63
2022-09-06T13:32:58.414Z,2.03
2022-09-06T13:39:12.431Z,2.58
2022-09-06T13:42:30.504Z,2.50
2022-09-06T13:45:33.733Z,2.63
2022-09-06T13:48:36.911Z,2.90
2022-09-06T13:51:40.478Z,2.60
2022-09-06T13:54:43.048Z,3.42
2022-09-06T13:57:46.920Z,3.00
2022-09-06T14:00:49.544Z,2.80
2022-09-06T14:06:55.205Z,3.53
2022-09-06T14:09:57.780Z,2.65
2022-09-06T14:13:01.596Z,2.95
2022-09-06T14:16:05.335Z,3.25
2022-09-06T14:19:07.980Z,3.85
2022-09-06T14:22:10.524Z,2.85
2022-09-06T14:25:13.231Z,3.15
2022-09-06T14:31:21.583Z,3.60
2022-09-06T14:34:25.668Z,2.75
2022-09-06T14:37:28.197Z,3.00
2022-09-06T14:40:30.812Z,3.30
2022-09-06T14:43:35.369Z,3.03
2022-09-06T14:46:38.060Z,3.10
2022-09-06T14:52:43.093Z,3.00
2022-09-06T14:55:45.699Z,3.60
2022-09-06T14:58:49.886Z,2.70
2022-09-06T15:01:52.545Z,3.28
2022-09-06T15:07:57.889Z,3.67
2022-09-06T15:11:01.053Z,3.10
2022-09-06T15:14:07.900Z,3.17
2022-09-06T15:17:11.182Z,3.15
2022-09-06T15:20:13.760Z,2.80
2022-09-06T15:26:28.223Z,2.53
2022-09-06T15:29:32.167Z,2.45
2022-09-06T15:32:34.668Z,2.33
2022-09-06T15:38:42.502Z,2.13
2022-09-06T15:41:45.541Z,1.40
2022-09-06T15:44:49.434Z,1.50
2022-09-06T15:47:52.038Z,1.40
2022-09-06T15:50:54.549Z,1.70
2022-09-06T15:53:57.096Z,1.85
2022-09-06T15:56:59.643Z,1.67
2022-09-06T16:00:04.517Z,1.60
2022-09-06T16:03:07.135Z,1.60
2022-09-06T16:06:27.891Z,2.47
2022-09-06T16:09:31.823Z,2.00
2022-09-06T16:12:34.834Z,1.80
2022-09-06T16:15:38.792Z,2.00
2022-09-06T16:18:43.022Z,2.10
2022-09-06T16:21:45.956Z,2.05
2022-09-06T16:24:48.590Z,2.05
2022-09-06T16:27:51.597Z,2.20
2022-09-06T16:30:55.754Z,2.05
2022-09-06T16:33:58.747Z,2.45
2022-09-06T16:37:07.635Z,1.92
2022-09-06T16:40:11.193Z,1.92
2022-09-06T16:43:14.082Z,1.90
2022-09-06T16:46:18.289Z,1.38
2022-09-06T16:49:21.145Z,1.63
2022-09-06T16:52:23.785Z,1.75
2022-09-06T16:55:26.622Z,1.48
2022-09-06T16:58:30.181Z,1.85
2022-09-06T17:01:35.787Z,1.73
2022-09-06T17:04:38.375Z,2.15
2022-09-06T17:10:44.008Z,2.30
2022-09-06T17:13:48.667Z,2.30
2022-09-06T17:17:09.591Z,3.22
2022-09-06T17:20:12.359Z,3.28
2022-09-06T17:23:19.149Z,2.65
2022-09-06T17:26:23.302Z,2.83
2022-09-06T17:29:28.082Z,3.38
2022-09-06T17:32:32.738Z,4.85
2022-09-06T17:35:35.313Z,4.70
2022-09-06T17:38:37.945Z,5.05
2022-09-06T17:41:42.097Z,4.18
2022-09-06T17:44:45.577Z,4.53
2022-09-06T17:47:49.623Z,3.90
2022-09-06T17:50:53.181Z,3.58
2022-09-06T17:53:56.524Z,4.15
2022-09-06T17:56:59.017Z,3.83
2022-09-06T18:00:02.214Z,5.50
2022-09-06T18:03:06.198Z,5.27
2022-09-06T18:06:10.459Z,4.47
2022-09-06T18:09:15.897Z,3.60
2022-09-06T18:12:19.568Z,3.30
2022-09-06T18:15:22.115Z,4.00
2022-09-06T18:18:25.992Z,3.60
2022-09-06T18:21:30.967Z,3.50
2022-09-06T18:24:33.684Z,3.60
2022-09-06T18:27:36.307Z,4.25
2022-09-06T18:30:38.876Z,3.30
2022-09-06T18:33:43.283Z,3.95
2022-09-06T18:36:45.888Z,3.60
2022-09-06T18:39:48.871Z,3.60
2022-09-06T18:42:51.518Z,3.40
2022-09-06T18:45:54.208Z,3.13
2022-09-06T18:48:58.284Z,3.45
2022-09-06T18:52:01.314Z,3.60
2022-09-06T18:58:06.373Z,3.63
2022-09-06T19:01:11.641Z,2.75
2022-09-06T19:04:15.740Z,3.43
2022-09-06T19:07:18.285Z,3.20
2022-09-06T19:10:20.851Z,3.35
2022-09-06T19:13:23.793Z,4.18
2022-09-06T19:16:27.545Z,4.32
2022-09-06T19:19:31.587Z,2.97
2022-09-06T19:22:34.180Z,3.80
2022-09-06T19:25:36.739Z,3.17
2022-09-06T19:28:39.471Z,3.53
2022-09-06T19:31:42.529Z,3.45
2022-09-06T19:37:49.075Z,2.70
2022-09-06T19:40:51.641Z,2.67
2022-09-06T19:43:55.637Z,3.33
2022-09-06T19:46:59.886Z,3.60
2022-09-06T19:50:03.798Z,3.40
2022-09-06T19:53:07.381Z,3.60
2022-09-06T19:56:10.876Z,2.53
2022-09-06T19:59:14.517Z,3.10
2022-09-06T20:02:17.208Z,2.80
2022-09-06T20:05:21.169Z,3.47
2022-09-06T20:08:23.737Z,6.00
2022-09-06T20:11:28.434Z,5.22
2022-09-06T20:14:31.225Z,5.07
2022-09-06T20:17:34.635Z,2.60
2022-09-06T20:20:38.903Z,2.10
2022-09-06T20:23:42.180Z,2.80
2022-09-06T20:26:44.892Z,2.33
2022-09-06T20:29:47.748Z,2.20
2022-09-06T20:32:50.270Z,2.35
2022-09-06T20:35:58.117Z,2.33
2022-09-06T20:39:00.739Z,1.83
2022-09-06T20:42:03.248Z,2.22
2022-09-06T20:45:07.000Z,2.33
2022-09-06T20:48:10.854Z,2.20
2022-09-06T20:51:15.919Z,2.43
2022-09-06T20:54:18.633Z,2.50
2022-09-06T20:57:21.173Z,2.42
2022-09-06T21:00:23.746Z,2.72
2022-09-06T21:03:27.726Z,2.65
2022-09-06T21:06:34.458Z,2.80
2022-09-06T21:09:37.132Z,2.70
2022-09-06T21:12:39.656Z,3.42
2022-09-06T21:15:42.496Z,3.42
2022-09-06T21:18:45.054Z,3.53
2022-09-06T21:21:49.024Z,3.15
2022-09-06T21:24:51.692Z,3.30
2022-09-06T21:27:55.940Z,2.80
2022-09-06T21:31:02.833Z,2.83
2022-09-06T21:34:06.917Z,2.23
2022-09-06T21:37:10.759Z,2.77
2022-09-06T21:40:13.387Z,2.93
2022-09-06T21:43:15.996Z,2.15
2022-09-06T21:46:20.024Z,2.50
2022-09-06T21:49:22.621Z,2.17
2022-09-06T21:52:26.662Z,2.35
2022-09-06T21:55:29.365Z,2.77
2022-09-06T21:58:32.603Z,2.67
2022-09-06T22:01:36.770Z,3.00
2022-09-06T22:04:39.321Z,2.50
2022-09-06T22:07:43.236Z,2.78
2022-09-06T22:10:45.863Z,2.67
2022-09-06T22:13:48.945Z,2.83
2022-09-06T22:19:54.720Z,2.55
2022-09-06T22:22:58.612Z,2.08
2022-09-06T22:26:03.455Z,3.20
2022-09-06T22:29:08.183Z,3.07
2022-09-06T22:32:10.792Z,1.90
2022-09-06T22:35:13.355Z,2.20
2022-09-06T22:38:17.323Z,2.10
2022-09-06T22:41:19.926Z,2.57
2022-09-06T22:44:22.533Z,2.45
2022-09-06T22:47:25.439Z,2.53
2022-09-06T22:50:28.141Z,2.53
2022-09-06T22:53:32.563Z,2.80
2022-09-06T22:56:35.700Z,2.67
2022-09-06T22:59:38.301Z,2.60
2022-09-06T23:02:41.029Z,2.67
2022-09-06T23:05:43.631Z,2.33
2022-09-06T23:08:47.563Z,2.35
2022-09-06T23:11:50.065Z,2.50
2022-09-06T23:14:52.744Z,2.92
2022-09-06T23:17:55.257Z,2.13
2022-09-06T23:20:57.912Z,2.40
2022-09-06T23:24:01.934Z,1.98
2022-09-06T23:27:05.657Z,2.20
2022-09-06T23:30:12.109Z,2.10
2022-09-06T23:33:14.708Z,2.17
2022-09-06T23:36:17.264Z,1.77
2022-09-06T23:39:21.229Z,2.03
2022-09-06T23:42:24.556Z,2.90
2022-09-06T23:45:27.286Z,2.20
2022-09-06T23:48:30.324Z,2.70
2022-09-06T23:51:33.031Z,2.90
2022-09-06T23:54:37.250Z,2.53
2022-09-06T23:57:39.784Z,1.90
